sensor_id;sensor_type;location;lat;lon;timestamp;P1;durP1;ratioP1;P2;durP2;ratioP2
42704;SDS011;28342;42.594;23.414;2023-02-15T00:01:37;63.22;;;32.88;;
42704;SDS011;28342;42.594;23.414;2023-02-15T00:04:03;61.63;;;32.72;;
42704;SDS011;28342;42.594;23.414;2023-02-15T00:06:30;61.72;;;33.25;;
42704;SDS011;28342;42.594;23.414;2023-02-15T00:09:00;60.83;;;31.17;;
42704;SDS011;28342;42.594;23.414;2023-02-15T00:11:30;62.17;;;32.35;;
42704;SDS011;28342;42.594;23.414;2023-02-15T00:14:19;63.53;;;33.53;;
42704;SDS011;28342;42.594;23.414;2023-02-15T00:16:46;57.53;;;30.92;;
42704;SDS011;28342;42.594;23.414;2023-02-15T00:19:13;59.50;;;32.15;;
42704;SDS011;28342;42.594;23.414;2023-02-15T00:21:40;58.92;;;31.38;;
42704;SDS011;28342;42.594;23.414;2023-02-15T00:24:07;61.53;;;31.67;;
42704;SDS011;28342;42.594;23.414;2023-02-15T00:26:34;59.85;;;32.50;;
42704;SDS011;28342;42.594;23.414;2023-02-15T00:29:01;54.13;;;30.85;;
42704;SDS011;28342;42.594;23.414;2023-02-15T00:31:27;53.58;;;30.70;;
42704;SDS011;28342;42.594;23.414;2023-02-15T00:34:00;58.17;;;30.58;;
42704;SDS011;28342;42.594;23.414;2023-02-15T00:36:30;56.20;;;30.67;;
42704;SDS011;28342;42.594;23.414;2023-02-15T00:38:55;54.17;;;28.83;;
42704;SDS011;28342;42.594;23.414;2023-02-15T00:41:21;60.83;;;31.88;;
42704;SDS011;28342;42.594;23.414;2023-02-15T00:43:47;57.88;;;29.63;;
42704;SDS011;28342;42.594;23.414;2023-02-15T00:46:12;58.97;;;31.23;;
42704;SDS011;28342;42.594;23.414;2023-02-15T00:48:38;56.45;;;30.50;;
42704;SDS011;28342;42.594;23.414;2023-02-15T00:51:04;58.05;;;32.35;;
42704;SDS011;28342;42.594;23.414;2023-02-15T00:53:30;61.00;;;31.75;;
42704;SDS011;28342;42.594;23.414;2023-02-15T00:55:57;55.47;;;30.23;;
42704;SDS011;28342;42.594;23.414;2023-02-15T00:58:22;58.42;;;29.77;;
42704;SDS011;28342;42.594;23.414;2023-02-15T01:00:48;56.65;;;31.70;;
42704;SDS011;28342;42.594;23.414;2023-02-15T01:03:14;57.10;;;29.63;;
42704;SDS011;28342;42.594;23.414;2023-02-15T01:05:46;57.88;;;31.50;;
42704;SDS011;28342;42.594;23.414;2023-02-15T01:08:13;59.60;;;32.10;;
42704;SDS011;28342;42.594;23.414;2023-02-15T01:10:38;64.05;;;33.72;;
42704;SDS011;28342;42.594;23.414;2023-02-15T01:13:05;59.38;;;31.08;;
42704;SDS011;28342;42.594;23.414;2023-02-15T01:15:33;57.33;;;30.85;;
42704;SDS011;28342;42.594;23.414;2023-02-15T01:18:09;61.10;;;32.78;;
42704;SDS011;28342;42.594;23.414;2023-02-15T01:20:37;60.40;;;31.88;;
42704;SDS011;28342;42.594;23.414;2023-02-15T01:23:08;58.10;;;30.63;;
42704;SDS011;28342;42.594;23.414;2023-02-15T01:25:34;58.45;;;30.73;;
42704;SDS011;28342;42.594;23.414;2023-02-15T01:28:02;53.83;;;30.63;;
42704;SDS011;28342;42.594;23.414;2023-02-15T01:30:29;59.92;;;30.05;;
42704;SDS011;28342;42.594;23.414;2023-02-15T01:32:54;56.33;;;29.67;;
42704;SDS011;28342;42.594;23.414;2023-02-15T01:35:20;57.00;;;29.63;;
42704;SDS011;28342;42.594;23.414;2023-02-15T01:37:45;60.30;;;31.00;;
42704;SDS011;28342;42.594;23.414;2023-02-15T01:40:12;61.05;;;29.92;;
42704;SDS011;28342;42.594;23.414;2023-02-15T01:42:40;59.22;;;29.65;;
42704;SDS011;28342;42.594;23.414;2023-02-15T01:47:54;60.53;;;30.90;;
42704;SDS011;28342;42.594;23.414;2023-02-15T01:53:06;56.78;;;31.15;;
42704;SDS011;28342;42.594;23.414;2023-02-15T01:55:53;57.92;;;30.80;;
42704;SDS011;28342;42.594;23.414;2023-02-15T01:58:36;57.13;;;29.70;;
42704;SDS011;28342;42.594;23.414;2023-02-15T02:01:02;59.38;;;30.50;;
42704;SDS011;28342;42.594;23.414;2023-02-15T02:06:25;61.33;;;28.60;;
42704;SDS011;28342;42.594;23.414;2023-02-15T02:08:52;54.42;;;30.15;;
42704;SDS011;28342;42.594;23.414;2023-02-15T02:11:18;62.25;;;30.08;;
42704;SDS011;28342;42.594;23.414;2023-02-15T02:13:43;54.05;;;28.70;;
42704;SDS011;28342;42.594;23.414;2023-02-15T02:35:30;58.45;;;30.75;;
42704;SDS011;28342;42.594;23.414;2023-02-15T02:43:40;52.20;;;28.25;;
42704;SDS011;28342;42.594;23.414;2023-02-15T02:49:02;53.08;;;29.42;;
42704;SDS011;28342;42.594;23.414;2023-02-15T02:51:28;51.78;;;28.80;;
42704;SDS011;28342;42.594;23.414;2023-02-15T02:53:54;52.40;;;28.75;;
42704;SDS011;28342;42.594;23.414;2023-02-15T02:58:55;52.22;;;28.45;;
42704;SDS011;28342;42.594;23.414;2023-02-15T03:02:13;55.50;;;27.65;;
42704;SDS011;28342;42.594;23.414;2023-02-15T03:04:21;53.25;;;28.00;;
42704;SDS011;28342;42.594;23.414;2023-02-15T03:06:53;54.42;;;28.58;;
42704;SDS011;28342;42.594;23.414;2023-02-15T03:09:42;52.90;;;27.35;;
42704;SDS011;28342;42.594;23.414;2023-02-15T03:14:51;50.63;;;27.40;;
42704;SDS011;28342;42.594;23.414;2023-02-15T03:17:35;53.65;;;28.30;;
42704;SDS011;28342;42.594;23.414;2023-02-15T03:20:08;51.35;;;27.42;;
42704;SDS011;28342;42.594;23.414;2023-02-15T03:23:00;52.53;;;28.55;;
42704;SDS011;28342;42.594;23.414;2023-02-15T03:25:33;45.78;;;26.08;;
42704;SDS011;28342;42.594;23.414;2023-02-15T03:28:03;54.08;;;26.98;;
42704;SDS011;28342;42.594;23.414;2023-02-15T03:30:33;51.15;;;27.20;;
42704;SDS011;28342;42.594;23.414;2023-02-15T03:33:04;50.47;;;26.98;;
42704;SDS011;28342;42.594;23.414;2023-02-15T03:35:43;47.80;;;26.37;;
42704;SDS011;28342;42.594;23.414;2023-02-15T03:38:17;46.40;;;25.67;;
42704;SDS011;28342;42.594;23.414;2023-02-15T03:40:49;53.90;;;26.05;;
42704;SDS011;28342;42.594;23.414;2023-02-15T03:43:39;47.25;;;24.73;;
42704;SDS011;28342;42.594;23.414;2023-02-15T03:46:26;51.50;;;26.75;;
42704;SDS011;28342;42.594;23.414;2023-02-15T03:49:48;46.75;;;25.98;;
42704;SDS011;28342;42.594;23.414;2023-02-15T03:55:21;54.53;;;27.13;;
42704;SDS011;28342;42.594;23.414;2023-02-15T03:57:48;46.88;;;25.80;;
42704;SDS011;28342;42.594;23.414;2023-02-15T04:00:33;48.75;;;26.33;;
42704;SDS011;28342;42.594;23.414;2023-02-15T04:05:53;44.28;;;25.10;;
42704;SDS011;28342;42.594;23.414;2023-02-15T04:08:18;47.35;;;26.00;;
42704;SDS011;28342;42.594;23.414;2023-02-15T04:10:44;43.90;;;25.10;;
42704;SDS011;28342;42.594;23.414;2023-02-15T04:13:22;46.40;;;26.35;;
42704;SDS011;28342;42.594;23.414;2023-02-15T04:15:49;46.92;;;25.98;;
42704;SDS011;28342;42.594;23.414;2023-02-15T04:18:29;43.78;;;25.08;;
42704;SDS011;28342;42.594;23.414;2023-02-15T04:21:17;47.88;;;25.23;;
42704;SDS011;28342;42.594;23.414;2023-02-15T04:24:02;45.80;;;25.52;;
42704;SDS011;28342;42.594;23.414;2023-02-15T04:29:17;48.05;;;25.25;;
42704;SDS011;28342;42.594;23.414;2023-02-15T04:31:47;42.25;;;23.20;;
42704;SDS011;28342;42.594;23.414;2023-02-15T04:34:12;53.05;;;26.90;;
42704;SDS011;28342;42.594;23.414;2023-02-15T04:36:40;51.83;;;26.08;;
42704;SDS011;28342;42.594;23.414;2023-02-15T04:39:06;52.33;;;26.60;;
42704;SDS011;28342;42.594;23.414;2023-02-15T04:41:32;47.50;;;25.67;;
42704;SDS011;28342;42.594;23.414;2023-02-15T04:43:59;50.63;;;26.42;;
42704;SDS011;28342;42.594;23.414;2023-02-15T04:46:26;50.15;;;27.15;;
42704;SDS011;28342;42.594;23.414;2023-02-15T04:48:52;49.08;;;26.63;;
42704;SDS011;28342;42.594;23.414;2023-02-15T04:51:18;46.25;;;26.88;;
42704;SDS011;28342;42.594;23.414;2023-02-15T04:53:43;54.80;;;27.42;;
42704;SDS011;28342;42.594;23.414;2023-02-15T04:56:09;48.63;;;26.65;;
42704;SDS011;28342;42.594;23.414;2023-02-15T04:58:35;50.03;;;27.48;;
42704;SDS011;28342;42.594;23.414;2023-02-15T05:01:02;56.08;;;28.33;;
42704;SDS011;28342;42.594;23.414;2023-02-15T05:03:27;47.55;;;25.52;;
42704;SDS011;28342;42.594;23.414;2023-02-15T05:05:53;53.63;;;28.20;;
42704;SDS011;28342;42.594;23.414;2023-02-15T05:08:18;48.20;;;26.88;;
42704;SDS011;28342;42.594;23.414;2023-02-15T05:10:44;48.88;;;26.65;;
42704;SDS011;28342;42.594;23.414;2023-02-15T05:13:09;46.70;;;26.27;;
42704;SDS011;28342;42.594;23.414;2023-02-15T05:15:35;50.85;;;26.80;;
42704;SDS011;28342;42.594;23.414;2023-02-15T05:18:00;52.40;;;28.02;;
42704;SDS011;28342;42.594;23.414;2023-02-15T05:20:26;46.63;;;25.85;;
42704;SDS011;28342;42.594;23.414;2023-02-15T05:22:55;50.60;;;26.13;;
42704;SDS011;28342;42.594;23.414;2023-02-15T05:25:20;51.45;;;27.25;;
42704;SDS011;28342;42.594;23.414;2023-02-15T05:28:04;50.22;;;26.95;;
42704;SDS011;28342;42.594;23.414;2023-02-15T05:30:49;52.58;;;26.73;;
42704;SDS011;28342;42.594;23.414;2023-02-15T05:33:15;47.28;;;24.95;;
42704;SDS011;28342;42.594;23.414;2023-02-15T05:35:42;48.60;;;25.55;;
42704;SDS011;28342;42.594;23.414;2023-02-15T05:38:08;49.40;;;26.30;;
42704;SDS011;28342;42.594;23.414;2023-02-15T05:40:34;48.50;;;26.05;;
42704;SDS011;28342;42.594;23.414;2023-02-15T05:43:00;49.55;;;26.70;;
42704;SDS011;28342;42.594;23.414;2023-02-15T05:45:25;54.10;;;29.40;;
42704;SDS011;28342;42.594;23.414;2023-02-15T05:47:51;54.08;;;28.17;;
42704;SDS011;28342;42.594;23.414;2023-02-15T05:50:17;51.75;;;28.17;;
42704;SDS011;28342;42.594;23.414;2023-02-15T05:52:42;51.13;;;27.42;;
42704;SDS011;28342;42.594;23.414;2023-02-15T05:55:10;48.92;;;27.27;;
42704;SDS011;28342;42.594;23.414;2023-02-15T05:57:38;53.10;;;27.40;;
42704;SDS011;28342;42.594;23.414;2023-02-15T06:00:04;49.47;;;26.08;;
42704;SDS011;28342;42.594;23.414;2023-02-15T06:02:34;47.50;;;26.27;;
42704;SDS011;28342;42.594;23.414;2023-02-15T06:05:00;52.33;;;27.77;;
42704;SDS011;28342;42.594;23.414;2023-02-15T06:07:29;56.00;;;28.33;;
42704;SDS011;28342;42.594;23.414;2023-02-15T06:09:59;52.58;;;27.23;;
42704;SDS011;28342;42.594;23.414;2023-02-15T06:12:25;53.15;;;26.65;;
42704;SDS011;28342;42.594;23.414;2023-02-15T06:14:50;53.70;;;26.70;;
42704;SDS011;28342;42.594;23.414;2023-02-15T06:17:16;50.25;;;26.02;;
42704;SDS011;28342;42.594;23.414;2023-02-15T06:19:42;56.05;;;27.83;;
42704;SDS011;28342;42.594;23.414;2023-02-15T06:22:08;82.25;;;37.20;;
42704;SDS011;28342;42.594;23.414;2023-02-15T06:24:34;81.97;;;38.53;;
42704;SDS011;28342;42.594;23.414;2023-02-15T06:27:00;126.07;;;53.92;;
42704;SDS011;28342;42.594;23.414;2023-02-15T06:29:26;73.43;;;34.97;;
42704;SDS011;28342;42.594;23.414;2023-02-15T06:31:51;65.18;;;29.23;;
42704;SDS011;28342;42.594;23.414;2023-02-15T06:34:17;61.00;;;30.15;;
42704;SDS011;28342;42.594;23.414;2023-02-15T06:36:42;66.53;;;31.08;;
42704;SDS011;28342;42.594;23.414;2023-02-15T06:39:08;59.05;;;29.02;;
42704;SDS011;28342;42.594;23.414;2023-02-15T06:41:33;55.08;;;25.95;;
42704;SDS011;28342;42.594;23.414;2023-02-15T06:43:59;51.90;;;26.30;;
42704;SDS011;28342;42.594;23.414;2023-02-15T06:46:25;50.03;;;26.60;;
42704;SDS011;28342;42.594;23.414;2023-02-15T06:48:50;48.70;;;26.20;;
42704;SDS011;28342;42.594;23.414;2023-02-15T06:51:16;52.95;;;27.20;;
42704;SDS011;28342;42.594;23.414;2023-02-15T06:53:41;47.85;;;25.17;;
42704;SDS011;28342;42.594;23.414;2023-02-15T06:56:08;51.40;;;28.10;;
42704;SDS011;28342;42.594;23.414;2023-02-15T06:58:42;59.65;;;30.13;;
42704;SDS011;28342;42.594;23.414;2023-02-15T07:01:08;53.47;;;28.73;;
42704;SDS011;28342;42.594;23.414;2023-02-15T07:03:34;55.42;;;28.25;;
42704;SDS011;28342;42.594;23.414;2023-02-15T07:06:02;52.55;;;28.23;;
42704;SDS011;28342;42.594;23.414;2023-02-15T07:08:31;50.75;;;25.38;;
42704;SDS011;28342;42.594;23.414;2023-02-15T07:10:56;58.92;;;28.33;;
42704;SDS011;28342;42.594;23.414;2023-02-15T07:13:44;83.50;;;35.45;;
42704;SDS011;28342;42.594;23.414;2023-02-15T07:16:13;48.55;;;24.85;;
42704;SDS011;28342;42.594;23.414;2023-02-15T07:18:40;50.00;;;26.70;;
42704;SDS011;28342;42.594;23.414;2023-02-15T07:21:05;46.60;;;23.90;;
42704;SDS011;28342;42.594;23.414;2023-02-15T07:23:38;43.30;;;21.95;;
42704;SDS011;28342;42.594;23.414;2023-02-15T07:26:05;40.60;;;23.17;;
42704;SDS011;28342;42.594;23.414;2023-02-15T07:28:32;36.55;;;21.67;;
42704;SDS011;28342;42.594;23.414;2023-02-15T07:31:00;38.22;;;21.30;;
42704;SDS011;28342;42.594;23.414;2023-02-15T07:33:27;42.65;;;22.67;;
42704;SDS011;28342;42.594;23.414;2023-02-15T07:35:58;37.10;;;21.17;;
42704;SDS011;28342;42.594;23.414;2023-02-15T07:38:25;33.05;;;19.83;;
42704;SDS011;28342;42.594;23.414;2023-02-15T07:40:57;45.75;;;22.60;;
42704;SDS011;28342;42.594;23.414;2023-02-15T07:43:24;41.28;;;22.80;;
42704;SDS011;28342;42.594;23.414;2023-02-15T07:45:50;37.10;;;21.67;;
42704;SDS011;28342;42.594;23.414;2023-02-15T07:48:15;40.38;;;22.67;;
42704;SDS011;28342;42.594;23.414;2023-02-15T07:50:40;40.67;;;19.80;;
42704;SDS011;28342;42.594;23.414;2023-02-15T07:53:06;33.92;;;17.95;;
42704;SDS011;28342;42.594;23.414;2023-02-15T07:55:31;37.92;;;21.05;;
42704;SDS011;28342;42.594;23.414;2023-02-15T07:57:58;37.08;;;20.33;;
42704;SDS011;28342;42.594;23.414;2023-02-15T08:00:24;34.47;;;19.35;;
42704;SDS011;28342;42.594;23.414;2023-02-15T08:02:53;31.52;;;18.73;;
42704;SDS011;28342;42.594;23.414;2023-02-15T08:05:41;35.60;;;19.23;;
42704;SDS011;28342;42.594;23.414;2023-02-15T08:08:11;39.78;;;20.45;;
42704;SDS011;28342;42.594;23.414;2023-02-15T08:13:51;44.30;;;22.52;;
42704;SDS011;28342;42.594;23.414;2023-02-15T08:16:23;37.58;;;20.55;;
42704;SDS011;28342;42.594;23.414;2023-02-15T08:18:57;33.03;;;16.95;;
42704;SDS011;28342;42.594;23.414;2023-02-15T08:21:26;31.02;;;18.35;;
42704;SDS011;28342;42.594;23.414;2023-02-15T08:23:56;30.10;;;17.85;;
42704;SDS011;28342;42.594;23.414;2023-02-15T08:26:23;31.73;;;17.15;;
42704;SDS011;28342;42.594;23.414;2023-02-15T08:28:50;27.50;;;16.45;;
42704;SDS011;28342;42.594;23.414;2023-02-15T08:31:16;28.75;;;16.48;;
42704;SDS011;28342;42.594;23.414;2023-02-15T08:33:44;31.27;;;17.27;;
42704;SDS011;28342;42.594;23.414;2023-02-15T08:36:13;31.08;;;16.67;;
42704;SDS011;28342;42.594;23.414;2023-02-15T08:38:41;26.88;;;16.10;;
42704;SDS011;28342;42.594;23.414;2023-02-15T08:41:17;27.52;;;16.55;;
42704;SDS011;28342;42.594;23.414;2023-02-15T08:43:49;30.88;;;17.25;;
42704;SDS011;28342;42.594;23.414;2023-02-15T08:46:18;29.13;;;16.92;;
42704;SDS011;28342;42.594;23.414;2023-02-15T08:48:44;30.90;;;18.42;;
42704;SDS011;28342;42.594;23.414;2023-02-15T08:51:11;25.38;;;15.45;;
42704;SDS011;28342;42.594;23.414;2023-02-15T08:53:45;27.20;;;15.43;;
42704;SDS011;28342;42.594;23.414;2023-02-15T08:56:16;28.10;;;15.23;;
42704;SDS011;28342;42.594;23.414;2023-02-15T08:58:46;29.65;;;16.35;;
42704;SDS011;28342;42.594;23.414;2023-02-15T09:01:12;28.92;;;16.63;;
42704;SDS011;28342;42.594;23.414;2023-02-15T09:03:43;31.83;;;17.20;;
42704;SDS011;28342;42.594;23.414;2023-02-15T09:06:09;27.08;;;16.17;;
42704;SDS011;28342;42.594;23.414;2023-02-15T09:08:36;27.10;;;16.02;;
42704;SDS011;28342;42.594;23.414;2023-02-15T09:11:18;24.65;;;15.57;;
42704;SDS011;28342;42.594;23.414;2023-02-15T09:14:02;26.33;;;16.45;;
42704;SDS011;28342;42.594;23.414;2023-02-15T09:16:33;28.08;;;16.35;;
42704;SDS011;28342;42.594;23.414;2023-02-15T09:19:00;27.70;;;17.10;;
42704;SDS011;28342;42.594;23.414;2023-02-15T09:21:27;30.60;;;17.20;;
42704;SDS011;28342;42.594;23.414;2023-02-15T09:23:57;29.65;;;16.55;;
42704;SDS011;28342;42.594;23.414;2023-02-15T09:26:28;28.23;;;17.02;;
42704;SDS011;28342;42.594;23.414;2023-02-15T09:28:56;30.27;;;17.90;;
42704;SDS011;28342;42.594;23.414;2023-02-15T09:31:25;28.55;;;16.98;;
42704;SDS011;28342;42.594;23.414;2023-02-15T09:33:53;27.25;;;16.80;;
42704;SDS011;28342;42.594;23.414;2023-02-15T09:38:47;27.88;;;17.85;;
42704;SDS011;28342;42.594;23.414;2023-02-15T09:44:04;28.50;;;17.17;;
42704;SDS011;28342;42.594;23.414;2023-02-15T10:03:19;32.22;;;18.42;;
42704;SDS011;28342;42.594;23.414;2023-02-15T10:19:43;34.22;;;18.95;;
42704;SDS011;28342;42.594;23.414;2023-02-15T10:25:27;31.08;;;18.15;;
42704;SDS011;28342;42.594;23.414;2023-02-15T10:27:54;33.63;;;19.80;;
42704;SDS011;28342;42.594;23.414;2023-02-15T10:30:29;34.65;;;20.65;;
42704;SDS011;28342;42.594;23.414;2023-02-15T10:33:14;31.17;;;18.50;;
42704;SDS011;28342;42.594;23.414;2023-02-15T10:36:05;36.00;;;21.33;;
42704;SDS011;28342;42.594;23.414;2023-02-15T10:38:58;32.45;;;19.58;;
42704;SDS011;28342;42.594;23.414;2023-02-15T10:41:45;32.00;;;18.58;;
42704;SDS011;28342;42.594;23.414;2023-02-15T10:44:22;32.60;;;19.83;;
42704;SDS011;28342;42.594;23.414;2023-02-15T10:52:54;35.38;;;20.27;;
42704;SDS011;28342;42.594;23.414;2023-02-15T10:58:07;30.90;;;19.88;;
42704;SDS011;28342;42.594;23.414;2023-02-15T11:00:45;34.33;;;20.70;;
42704;SDS011;28342;42.594;23.414;2023-02-15T11:06:25;32.95;;;20.83;;
42704;SDS011;28342;42.594;23.414;2023-02-15T11:08:59;32.97;;;19.40;;
42704;SDS011;28342;42.594;23.414;2023-02-15T11:11:31;31.85;;;19.40;;
42704;SDS011;28342;42.594;23.414;2023-02-15T11:14:03;31.90;;;20.58;;
42704;SDS011;28342;42.594;23.414;2023-02-15T11:16:40;36.25;;;20.75;;
42704;SDS011;28342;42.594;23.414;2023-02-15T11:19:12;31.05;;;19.02;;
42704;SDS011;28342;42.594;23.414;2023-02-15T11:21:57;34.58;;;21.38;;
42704;SDS011;28342;42.594;23.414;2023-02-15T11:24:31;33.53;;;19.83;;
42704;SDS011;28342;42.594;23.414;2023-02-15T11:27:21;36.92;;;22.42;;
42704;SDS011;28342;42.594;23.414;2023-02-15T11:32:55;33.90;;;21.23;;
42704;SDS011;28342;42.594;23.414;2023-02-15T11:35:27;38.47;;;22.02;;
42704;SDS011;28342;42.594;23.414;2023-02-15T11:40:56;35.87;;;21.30;;
42704;SDS011;28342;42.594;23.414;2023-02-15T11:46:15;154.35;;;67.88;;
42704;SDS011;28342;42.594;23.414;2023-02-15T11:48:41;38.60;;;22.27;;
42704;SDS011;28342;42.594;23.414;2023-02-15T11:51:08;36.78;;;21.38;;
42704;SDS011;28342;42.594;23.414;2023-02-15T11:53:38;36.63;;;21.27;;
42704;SDS011;28342;42.594;23.414;2023-02-15T11:56:04;36.20;;;21.33;;
42704;SDS011;28342;42.594;23.414;2023-02-15T11:58:47;39.03;;;22.52;;
42704;SDS011;28342;42.594;23.414;2023-02-15T12:01:30;37.60;;;21.05;;
42704;SDS011;28342;42.594;23.414;2023-02-15T12:04:04;37.35;;;21.90;;
42704;SDS011;28342;42.594;23.414;2023-02-15T12:06:37;36.00;;;21.05;;
42704;SDS011;28342;42.594;23.414;2023-02-15T12:14:53;34.92;;;22.60;;
42704;SDS011;28342;42.594;23.414;2023-02-15T12:17:25;41.70;;;22.25;;
42704;SDS011;28342;42.594;23.414;2023-02-15T12:19:52;34.35;;;21.52;;
42704;SDS011;28342;42.594;23.414;2023-02-15T12:24:49;33.45;;;20.45;;
42704;SDS011;28342;42.594;23.414;2023-02-15T12:27:23;35.47;;;21.58;;
42704;SDS011;28342;42.594;23.414;2023-02-15T12:29:53;32.55;;;20.17;;
42704;SDS011;28342;42.594;23.414;2023-02-15T12:32:25;33.53;;;20.45;;
42704;SDS011;28342;42.594;23.414;2023-02-15T12:35:26;33.25;;;20.20;;
42704;SDS011;28342;42.594;23.414;2023-02-15T12:38:28;39.88;;;20.90;;
42704;SDS011;28342;42.594;23.414;2023-02-15T12:40:59;36.75;;;20.80;;
42704;SDS011;28342;42.594;23.414;2023-02-15T12:43:31;37.55;;;23.15;;
42704;SDS011;28342;42.594;23.414;2023-02-15T12:46:19;35.80;;;22.50;;
42704;SDS011;28342;42.594;23.414;2023-02-15T12:51:52;38.72;;;23.00;;
42704;SDS011;28342;42.594;23.414;2023-02-15T12:56:52;34.53;;;20.67;;
42704;SDS011;28342;42.594;23.414;2023-02-15T12:59:18;34.83;;;20.58;;
42704;SDS011;28342;42.594;23.414;2023-02-15T13:01:45;37.03;;;20.10;;
42704;SDS011;28342;42.594;23.414;2023-02-15T13:04:25;41.08;;;24.27;;
42704;SDS011;28342;42.594;23.414;2023-02-15T13:06:54;37.88;;;21.33;;
42704;SDS011;28342;42.594;23.414;2023-02-15T13:12:08;41.45;;;21.98;;
42704;SDS011;28342;42.594;23.414;2023-02-15T13:14:42;40.35;;;23.48;;
42704;SDS011;28342;42.594;23.414;2023-02-15T13:17:10;40.40;;;23.15;;
42704;SDS011;28342;42.594;23.414;2023-02-15T13:19:39;43.60;;;24.45;;
42704;SDS011;28342;42.594;23.414;2023-02-15T13:22:10;41.00;;;22.50;;
42704;SDS011;28342;42.594;23.414;2023-02-15T13:24:40;33.88;;;21.90;;
42704;SDS011;28342;42.594;23.414;2023-02-15T13:27:16;42.95;;;24.63;;
42704;SDS011;28342;42.594;23.414;2023-02-15T13:29:54;47.03;;;26.02;;
42704;SDS011;28342;42.594;23.414;2023-02-15T13:32:25;41.70;;;23.30;;
42704;SDS011;28342;42.594;23.414;2023-02-15T13:35:03;44.38;;;25.92;;
42704;SDS011;28342;42.594;23.414;2023-02-15T13:45:39;48.40;;;26.50;;
42704;SDS011;28342;42.594;23.414;2023-02-15T13:51:05;40.20;;;24.50;;
42704;SDS011;28342;42.594;23.414;2023-02-15T13:56:43;42.92;;;23.75;;
42704;SDS011;28342;42.594;23.414;2023-02-15T13:59:30;40.28;;;23.88;;
42704;SDS011;28342;42.594;23.414;2023-02-15T14:13:13;39.88;;;24.30;;
42704;SDS011;28342;42.594;23.414;2023-02-15T14:21:59;35.83;;;22.35;;
42704;SDS011;28342;42.594;23.414;2023-02-15T14:29:26;41.28;;;26.13;;
42704;SDS011;28342;42.594;23.414;2023-02-15T14:32:11;40.03;;;23.92;;
42704;SDS011;28342;42.594;23.414;2023-02-15T14:34:50;42.53;;;23.55;;
42704;SDS011;28342;42.594;23.414;2023-02-15T14:37:29;46.38;;;27.50;;
42704;SDS011;28342;42.594;23.414;2023-02-15T14:56:42;53.28;;;28.55;;
42704;SDS011;28342;42.594;23.414;2023-02-15T15:01:54;56.17;;;30.52;;
42704;SDS011;28342;42.594;23.414;2023-02-15T15:04:29;115.72;;;54.97;;
42704;SDS011;28342;42.594;23.414;2023-02-15T15:07:04;79.57;;;42.10;;
42704;SDS011;28342;42.594;23.414;2023-02-15T15:09:39;75.70;;;43.75;;
42704;SDS011;28342;42.594;23.414;2023-02-15T15:12:14;49.22;;;29.88;;
42704;SDS011;28342;42.594;23.414;2023-02-15T15:14:42;68.97;;;39.92;;
42704;SDS011;28342;42.594;23.414;2023-02-15T15:20:50;51.63;;;30.63;;
42704;SDS011;28342;42.594;23.414;2023-02-15T15:28:57;52.53;;;30.15;;
42704;SDS011;28342;42.594;23.414;2023-02-15T15:33:43;47.95;;;28.23;;
42704;SDS011;28342;42.594;23.414;2023-02-15T15:48:00;62.28;;;32.42;;
42704;SDS011;28342;42.594;23.414;2023-02-15T15:50:44;82.32;;;42.75;;
42704;SDS011;28342;42.594;23.414;2023-02-15T15:53:17;60.85;;;34.83;;
42704;SDS011;28342;42.594;23.414;2023-02-15T15:55:46;69.07;;;37.17;;
42704;SDS011;28342;42.594;23.414;2023-02-15T15:58:15;76.72;;;40.33;;
42704;SDS011;28342;42.594;23.414;2023-02-15T16:03:15;75.05;;;42.90;;
42704;SDS011;28342;42.594;23.414;2023-02-15T16:05:45;68.93;;;41.40;;
42704;SDS011;28342;42.594;23.414;2023-02-15T16:08:12;74.55;;;36.88;;
42704;SDS011;28342;42.594;23.414;2023-02-15T16:10:37;63.55;;;34.92;;
42704;SDS011;28342;42.594;23.414;2023-02-15T16:13:04;56.17;;;32.92;;
42704;SDS011;28342;42.594;23.414;2023-02-15T16:18:10;59.15;;;30.50;;
42704;SDS011;28342;42.594;23.414;2023-02-15T16:20:42;59.13;;;31.58;;
42704;SDS011;28342;42.594;23.414;2023-02-15T16:23:46;49.30;;;27.52;;
42704;SDS011;28342;42.594;23.414;2023-02-15T16:29:17;53.33;;;26.92;;
42704;SDS011;28342;42.594;23.414;2023-02-15T16:31:59;52.85;;;26.85;;
42704;SDS011;28342;42.594;23.414;2023-02-15T16:34:59;50.10;;;27.35;;
42704;SDS011;28342;42.594;23.414;2023-02-15T16:37:35;51.95;;;27.98;;
42704;SDS011;28342;42.594;23.414;2023-02-15T16:40:34;49.13;;;27.23;;
42704;SDS011;28342;42.594;23.414;2023-02-15T16:43:10;69.28;;;36.63;;
42704;SDS011;28342;42.594;23.414;2023-02-15T16:45:43;58.75;;;31.52;;
42704;SDS011;28342;42.594;23.414;2023-02-15T16:48:14;58.47;;;30.85;;
42704;SDS011;28342;42.594;23.414;2023-02-15T16:50:49;51.95;;;28.10;;
42704;SDS011;28342;42.594;23.414;2023-02-15T16:53:22;51.25;;;28.17;;
42704;SDS011;28342;42.594;23.414;2023-02-15T16:55:52;56.10;;;33.10;;
42704;SDS011;28342;42.594;23.414;2023-02-15T16:58:23;58.03;;;32.40;;
42704;SDS011;28342;42.594;23.414;2023-02-15T17:01:05;51.88;;;28.73;;
42704;SDS011;28342;42.594;23.414;2023-02-15T17:03:36;55.20;;;28.88;;
42704;SDS011;28342;42.594;23.414;2023-02-15T17:06:04;49.83;;;29.15;;
42704;SDS011;28342;42.594;23.414;2023-02-15T17:09:13;54.42;;;28.75;;
42704;SDS011;28342;42.594;23.414;2023-02-15T17:11:58;63.47;;;33.08;;
42704;SDS011;28342;42.594;23.414;2023-02-15T17:14:29;67.43;;;34.65;;
42704;SDS011;28342;42.594;23.414;2023-02-15T17:17:17;67.85;;;34.40;;
42704;SDS011;28342;42.594;23.414;2023-02-15T17:22:23;70.20;;;36.10;;
42704;SDS011;28342;42.594;23.414;2023-02-15T17:25:00;84.82;;;41.95;;
42704;SDS011;28342;42.594;23.414;2023-02-15T17:27:29;80.22;;;40.22;;
42704;SDS011;28342;42.594;23.414;2023-02-15T17:30:14;79.25;;;39.65;;
42704;SDS011;28342;42.594;23.414;2023-02-15T17:32:56;80.32;;;38.83;;
42704;SDS011;28342;42.594;23.414;2023-02-15T17:35:26;82.72;;;43.70;;
42704;SDS011;28342;42.594;23.414;2023-02-15T17:38:15;95.05;;;44.10;;
42704;SDS011;28342;42.594;23.414;2023-02-15T17:40:45;88.85;;;43.83;;
42704;SDS011;28342;42.594;23.414;2023-02-15T17:43:12;95.65;;;46.47;;
42704;SDS011;28342;42.594;23.414;2023-02-15T17:45:40;84.13;;;43.78;;
42704;SDS011;28342;42.594;23.414;2023-02-15T17:48:18;63.83;;;32.30;;
42704;SDS011;28342;42.594;23.414;2023-02-15T17:50:47;63.58;;;31.45;;
42704;SDS011;28342;42.594;23.414;2023-02-15T17:53:15;62.70;;;33.75;;
42704;SDS011;28342;42.594;23.414;2023-02-15T17:55:44;67.72;;;33.92;;
42704;SDS011;28342;42.594;23.414;2023-02-15T17:58:16;72.47;;;34.45;;
42704;SDS011;28342;42.594;23.414;2023-02-15T18:00:56;76.10;;;38.40;;
42704;SDS011;28342;42.594;23.414;2023-02-15T18:03:44;82.05;;;38.95;;
42704;SDS011;28342;42.594;23.414;2023-02-15T18:06:32;92.45;;;45.17;;
42704;SDS011;28342;42.594;23.414;2023-02-15T18:09:19;98.20;;;46.00;;
42704;SDS011;28342;42.594;23.414;2023-02-15T18:12:22;136.40;;;69.15;;
42704;SDS011;28342;42.594;23.414;2023-02-15T18:14:50;110.68;;;52.30;;